Time;durP1;ratioP1;P1;durP2;ratioP2;P2;SDS_P1;SDS_P2;PMS_P1;PMS_P2;Temp;Humidity;BMP_temperature;BMP_pressure;BME280_temperature;BME280_humidity;BME280_pressure;Samples;Min_cycle;Max_cycle;Signal;HPM_P1;HPM_P2
2021/11/10 00:00:58;;;;;;;23.23;5.00;;;;;;;;;;10253201;28;20089;-80
2021/11/10 00:05:58;;;;;;;17.87;5.07;;;;;;;;;;10249118;28;20381;-80
2021/11/10 00:10:59;;;;;;;15.00;4.93;;;;;;;;;;10249475;28;20454;-80
2021/11/10 00:15:59;;;;;;;15.68;5.25;;;;;;;;;;10249489;28;20039;-80
2021/11/10 00:21:00;;;;;;;12.63;5.28;;;;;;;;;;10236290;28;20032;-80
2021/11/10 00:31:12;;;;;;;16.52;6.40;;;;;;;;;;10419023;23;20081;-91
2021/11/10 00:36:13;;;;;;;11.27;5.38;;;;;;;;;;10361030;28;20022;-92
2021/11/10 00:41:14;;;;;;;13.07;5.22;;;;;;;;;;10382838;28;20097;-92
2021/11/10 00:46:15;;;;;;;12.70;4.97;;;;;;;;;;10365208;28;20105;-91
2021/11/10 00:51:15;;;;;;;8.80;4.63;;;;;;;;;;10378466;28;20379;-92
2021/11/10 00:56:20;;;;;;;9.57;4.93;;;;;;;;;;10375264;28;20056;-92
2021/11/10 01:01:21;;;;;;;10.05;4.72;;;;;;;;;;10351550;28;20466;-91
2021/11/10 01:06:22;;;;;;;9.90;5.20;;;;;;;;;;10385413;28;20037;-91
2021/11/10 01:11:22;;;;;;;7.82;4.18;;;;;;;;;;10349467;28;20026;-90
2021/11/10 01:16:24;;;;;;;10.90;4.75;;;;;;;;;;10344112;28;20029;-92
2021/11/10 01:21:51;;;;;;;10.73;4.50;;;;;;;;;;10356342;28;20029;-89
2021/11/10 01:26:54;;;;;;;13.93;4.35;;;;;;;;;;10357705;28;20057;-89
2021/11/10 01:31:57;;;;;;;11.75;4.38;;;;;;;;;;10328400;28;20026;-89
2021/11/10 01:36:58;;;;;;;6.32;4.05;;;;;;;;;;10326668;28;20034;-89
2021/11/10 01:42:05;;;;;;;12.05;4.45;;;;;;;;;;10339756;28;20022;-89
2021/11/10 01:47:17;;;;;;;8.02;4.78;;;;;;;;;;10324666;28;20488;-89
2021/11/10 01:52:29;;;;;;;9.82;4.90;;;;;;;;;;10322886;28;20098;-89
2021/11/10 01:57:33;;;;;;;6.75;3.78;;;;;;;;;;10349525;28;20013;-89
2021/11/10 02:02:40;;;;;;;8.88;4.00;;;;;;;;;;10324767;28;20113;-89
2021/11/10 02:07:42;;;;;;;7.78;4.50;;;;;;;;;;10314785;28;20161;-89
2021/11/10 02:12:43;;;;;;;8.07;3.88;;;;;;;;;;10326174;28;20023;-89
2021/11/10 02:17:50;;;;;;;7.13;3.88;;;;;;;;;;10321473;28;20026;-92
2021/11/10 02:22:52;;;;;;;7.80;4.20;;;;;;;;;;10358199;28;20031;-92
2021/11/10 02:27:53;;;;;;;9.63;5.03;;;;;;;;;;10333498;28;20046;-91
2021/11/10 02:33:00;;;;;;;15.15;4.07;;;;;;;;;;10353852;28;20057;-92
2021/11/10 02:38:06;;;;;;;6.22;4.20;;;;;;;;;;10359247;28;20116;-92
2021/11/10 02:43:07;;;;;;;13.20;4.18;;;;;;;;;;10336359;28;20029;-92
2021/11/10 02:48:09;;;;;;;7.35;4.28;;;;;;;;;;10335383;28;20022;-92
2021/11/10 02:53:10;;;;;;;5.05;3.63;;;;;;;;;;10359392;28;20021;-90
2021/11/10 02:58:11;;;;;;;7.72;3.78;;;;;;;;;;10356644;28;20501;-90
2021/11/10 03:03:20;;;;;;;6.22;4.00;;;;;;;;;;10353227;28;20360;-88
2021/11/10 03:08:24;;;;;;;5.20;4.03;;;;;;;;;;10341804;28;20116;-88
2021/11/10 03:13:26;;;;;;;6.95;4.28;;;;;;;;;;10378149;28;20033;-88
2021/11/10 03:18:29;;;;;;;7.43;3.78;;;;;;;;;;10350031;28;20503;-88
2021/11/10 03:23:32;;;;;;;6.55;3.85;;;;;;;;;;10344169;28;20030;-88
2021/11/10 03:28:35;;;;;;;8.00;3.80;;;;;;;;;;10354990;28;20069;-88
2021/11/10 03:33:36;;;;;;;5.65;3.75;;;;;;;;;;10340521;28;20026;-88
2021/11/10 03:38:37;;;;;;;6.25;3.60;;;;;;;;;;10365365;28;20036;-88
2021/11/10 03:43:39;;;;;;;5.65;3.80;;;;;;;;;;10356697;28;20033;-87
2021/11/10 03:48:40;;;;;;;6.35;3.90;;;;;;;;;;10356201;28;20022;-87
2021/11/10 03:53:42;;;;;;;5.80;3.60;;;;;;;;;;10350638;28;20446;-87
2021/11/10 03:58:43;;;;;;;5.80;4.00;;;;;;;;;;10350311;28;20042;-88
2021/11/10 04:03:49;;;;;;;6.53;4.13;;;;;;;;;;10338251;28;20471;-89
2021/11/10 04:08:51;;;;;;;5.03;3.47;;;;;;;;;;10336081;28;20044;-89
2021/11/10 04:13:59;;;;;;;5.15;3.60;;;;;;;;;;10360832;28;20386;-88
2021/11/10 04:19:00;;;;;;;6.00;3.53;;;;;;;;;;10350019;28;20025;-88
2021/11/10 04:24:03;;;;;;;7.57;4.00;;;;;;;;;;10338814;28;20073;-88
2021/11/10 04:29:04;;;;;;;4.82;3.83;;;;;;;;;;10342431;28;20396;-88
2021/11/10 04:34:05;;;;;;;5.50;3.80;;;;;;;;;;10375292;28;20444;-88
2021/11/10 04:39:06;;;;;;;5.55;3.60;;;;;;;;;;10320170;28;20037;-87
2021/11/10 04:44:10;;;;;;;5.40;3.67;;;;;;;;;;10371013;28;20030;-88
2021/11/10 04:49:19;;;;;;;5.70;3.30;;;;;;;;;;10334165;28;20034;-89
2021/11/10 04:54:20;;;;;;;5.68;3.58;;;;;;;;;;10331113;28;20026;-88
2021/11/10 04:59:21;;;;;;;5.72;3.97;;;;;;;;;;10343347;28;20042;-89
2021/11/10 05:04:21;;;;;;;6.65;3.80;;;;;;;;;;10342768;28;20462;-89
2021/11/10 05:09:35;;;;;;;4.32;3.30;;;;;;;;;;10355470;28;20041;-89
2021/11/10 05:14:36;;;;;;;4.25;3.00;;;;;;;;;;10352047;28;20037;-92
2021/11/10 05:19:37;;;;;;;4.47;3.38;;;;;;;;;;10340056;28;20029;-92
2021/11/10 05:24:38;;;;;;;4.50;3.22;;;;;;;;;;10343609;28;20364;-91
2021/11/10 05:29:39;;;;;;;4.60;3.47;;;;;;;;;;10336558;28;20041;-91
2021/11/10 05:34:40;;;;;;;4.55;3.80;;;;;;;;;;10344253;28;20578;-90
2021/11/10 05:39:41;;;;;;;4.15;3.17;;;;;;;;;;10360502;28;20040;-89
2021/11/10 05:44:46;;;;;;;3.97;3.22;;;;;;;;;;10351413;28;20025;-89
2021/11/10 05:49:48;;;;;;;6.35;3.60;;;;;;;;;;10354463;28;20057;-90
2021/11/10 05:54:50;;;;;;;3.65;3.05;;;;;;;;;;10382262;28;20034;-89
2021/11/10 05:59:51;;;;;;;6.32;3.15;;;;;;;;;;10381745;28;20045;-89
2021/11/10 06:04:51;;;;;;;4.03;3.22;;;;;;;;;;10374283;28;20026;-89
2021/11/10 06:09:55;;;;;;;5.00;3.40;;;;;;;;;;10353704;28;20060;-89
2021/11/10 06:14:55;;;;;;;4.43;3.35;;;;;;;;;;10374123;28;20088;-89
2021/11/10 06:20:00;;;;;;;5.07;3.55;;;;;;;;;;10342263;28;20053;-89
2021/11/10 06:25:02;;;;;;;3.47;2.97;;;;;;;;;;10379122;28;20547;-88
2021/11/10 06:30:03;;;;;;;4.20;3.13;;;;;;;;;;10334599;28;20125;-88
2021/11/10 06:35:07;;;;;;;6.65;3.13;;;;;;;;;;10335358;28;20475;-89
2021/11/10 06:40:08;;;;;;;3.97;3.03;;;;;;;;;;10333909;28;20028;-88
2021/11/10 06:45:09;;;;;;;5.72;3.40;;;;;;;;;;10325903;28;20037;-89
2021/11/10 06:50:10;;;;;;;5.57;3.60;;;;;;;;;;10317278;28;20026;-91
2021/11/10 06:55:11;;;;;;;5.35;3.03;;;;;;;;;;10341968;28;20036;-92
2021/11/10 07:00:15;;;;;;;6.22;3.25;;;;;;;;;;10343019;28;20102;-91
2021/11/10 07:05:16;;;;;;;8.23;3.00;;;;;;;;;;10304125;28;20034;-92
2021/11/10 07:10:17;;;;;;;6.93;3.22;;;;;;;;;;10340733;28;20025;-92
2021/11/10 07:15:17;;;;;;;8.27;3.40;;;;;;;;;;10299102;28;20018;-91
2021/11/10 07:20:19;;;;;;;13.52;3.90;;;;;;;;;;10350888;28;20489;-91
2021/11/10 07:25:19;;;;;;;6.68;3.83;;;;;;;;;;10311809;28;20450;-92
2021/11/10 07:30:20;;;;;;;6.20;3.35;;;;;;;;;;10347157;28;20152;-91
2021/11/10 07:35:21;;;;;;;12.20;4.18;;;;;;;;;;10357009;28;20036;-92
2021/11/10 07:40:24;;;;;;;12.02;3.58;;;;;;;;;;10341829;28;20036;-92
2021/11/10 07:45:35;;;;;;;15.55;4.05;;;;;;;;;;10355935;28;20018;-92
2021/11/10 07:50:36;;;;;;;8.98;3.83;;;;;;;;;;10374076;28;20080;-92
2021/11/10 07:55:38;;;;;;;7.78;3.55;;;;;;;;;;10341291;28;20558;-92
2021/11/10 08:00:41;;;;;;;10.20;3.80;;;;;;;;;;10371917;28;20448;-91
2021/11/10 08:05:41;;;;;;;11.80;4.45;;;;;;;;;;10372212;28;20447;-92
2021/11/10 08:10:43;;;;;;;10.95;3.50;;;;;;;;;;10355296;28;20041;-92
2021/11/10 08:15:44;;;;;;;8.63;3.42;;;;;;;;;;10356021;28;20085;-91
2021/11/10 08:20:44;;;;;;;10.23;3.80;;;;;;;;;;10373232;28;20112;-92
2021/11/10 08:25:45;;;;;;;9.50;3.50;;;;;;;;;;10325664;28;20088;-91
2021/11/10 08:30:46;;;;;;;10.05;3.83;;;;;;;;;;10354966;28;20052;-92
2021/11/10 08:35:47;;;;;;;8.68;3.20;;;;;;;;;;10372179;28;20060;-92
2021/11/10 08:40:50;;;;;;;7.30;3.63;;;;;;;;;;10380061;28;20474;-92
2021/11/10 08:45:54;;;;;;;9.60;3.53;;;;;;;;;;10339223;28;20018;-92
2021/11/10 08:50:56;;;;;;;8.55;3.53;;;;;;;;;;10360364;28;20028;-92
2021/11/10 08:55:57;;;;;;;5.18;3.28;;;;;;;;;;10380585;28;20451;-92
2021/11/10 09:01:00;;;;;;;9.38;3.53;;;;;;;;;;10347364;28;20049;-91
2021/11/10 09:06:01;;;;;;;7.20;3.42;;;;;;;;;;10359942;28;20459;-91
2021/11/10 09:11:01;;;;;;;5.25;3.65;;;;;;;;;;10361608;28;20479;-91
2021/11/10 09:16:02;;;;;;;7.43;3.42;;;;;;;;;;10362010;28;20399;-92
2021/11/10 09:21:02;;;;;;;9.85;3.97;;;;;;;;;;10361921;28;20502;-92
2021/11/10 09:26:03;;;;;;;4.35;2.92;;;;;;;;;;10361283;28;20025;-91
2021/11/10 09:31:04;;;;;;;12.50;3.55;;;;;;;;;;10346034;28;20038;-91
2021/11/10 09:36:04;;;;;;;7.85;3.53;;;;;;;;;;10378209;28;20026;-92
2021/11/10 09:41:05;;;;;;;6.88;3.67;;;;;;;;;;10377575;28;20029;-92
2021/11/10 09:46:08;;;;;;;8.63;3.63;;;;;;;;;;10358533;28;20026;-91
2021/11/10 09:51:09;;;;;;;9.95;3.10;;;;;;;;;;10333877;28;20113;-91
2021/11/10 09:56:10;;;;;;;5.25;3.50;;;;;;;;;;10366224;28;20541;-92
2021/11/10 10:01:10;;;;;;;6.03;3.47;;;;;;;;;;10335782;28;20033;-92
2021/11/10 10:06:13;;;;;;;3.67;3.13;;;;;;;;;;10343762;28;20026;-91
2021/11/10 10:11:14;;;;;;;6.70;3.70;;;;;;;;;;10338776;28;20122;-92
2021/11/10 10:16:23;;;;;;;7.22;3.47;;;;;;;;;;10348216;28;20133;-91
2021/11/10 10:21:24;;;;;;;6.20;3.17;;;;;;;;;;10333819;28;20026;-92
2021/11/10 10:26:26;;;;;;;4.10;2.97;;;;;;;;;;10339373;28;20463;-91
2021/11/10 10:31:28;;;;;;;7.10;3.80;;;;;;;;;;10359625;28;20077;-91
2021/11/10 10:36:32;;;;;;;5.53;3.40;;;;;;;;;;10358232;28;20113;-91
2021/11/10 10:41:42;;;;;;;6.07;3.45;;;;;;;;;;10343094;28;20014;-91
2021/11/10 10:46:46;;;;;;;4.95;3.17;;;;;;;;;;10340879;28;20025;-90
2021/11/10 10:51:53;;;;;;;6.93;3.50;;;;;;;;;;10357383;28;20114;-91
2021/11/10 10:56:59;;;;;;;7.53;3.55;;;;;;;;;;10357819;28;20364;-91
2021/11/10 11:02:03;;;;;;;4.20;3.10;;;;;;;;;;10357942;28;20030;-91
2021/11/10 11:07:06;;;;;;;5.45;3.55;;;;;;;;;;10358141;28;20120;-91
2021/11/10 11:12:29;;;;;;;8.88;3.53;;;;;;;;;;10341725;28;20014;-91
2021/11/10 11:17:45;;;;;;;4.65;3.53;;;;;;;;;;10339616;28;20026;-92
2021/11/10 11:22:45;;;;;;;4.68;2.83;;;;;;;;;;10348842;28;20498;-91
2021/11/10 11:27:55;;;;;;;3.80;2.95;;;;;;;;;;10349949;28;20470;-91
2021/11/10 11:32:58;;;;;;;4.40;3.10;;;;;;;;;;10343257;28;20096;-91
2021/11/10 11:38:05;;;;;;;4.88;2.85;;;;;;;;;;10333506;28;20041;-91
2021/11/10 11:43:08;;;;;;;5.20;3.25;;;;;;;;;;10333788;28;20022;-91
2021/11/10 11:48:08;;;;;;;4.55;2.75;;;;;;;;;;10372780;28;20042;-91
2021/11/10 11:53:11;;;;;;;3.80;2.92;;;;;;;;;;10355923;28;20029;-92
2021/11/10 11:58:23;;;;;;;6.90;3.10;;;;;;;;;;10353514;28;20036;-91
2021/11/10 12:03:26;;;;;;;5.93;2.78;;;;;;;;;;10353316;28;20095;-92
2021/11/10 12:08:44;;;;;;;7.13;3.30;;;;;;;;;;10341839;28;20034;-91
2021/11/10 12:14:10;;;;;;;4.63;3.00;;;;;;;;;;10361263;28;20115;-91
2021/11/10 12:19:12;;;;;;;4.32;2.95;;;;;;;;;;10341400;28;20040;-91
2021/11/10 12:24:24;;;;;;;5.35;2.65;;;;;;;;;;10339108;28;20036;-92
2021/11/10 12:29:59;;;;;;;3.70;2.90;;;;;;;;;;10482361;23;20087;-86
2021/11/10 12:35:01;;;;;;;4.07;3.03;;;;;;;;;;10458342;28;20068;-86
2021/11/10 12:40:14;;;;;;;4.10;2.70;;;;;;;;;;10459428;28;20104;-87
2021/11/10 12:45:19;;;;;;;8.18;3.38;;;;;;;;;;10457904;28;20129;-82
2021/11/10 12:50:41;;;;;;;3.65;2.80;;;;;;;;;;10410144;28;20413;-83
2021/11/10 12:55:54;;;;;;;2.78;2.42;;;;;;;;;;10435963;28;20029;-82
2021/11/10 13:00:57;;;;;;;6.20;3.00;;;;;;;;;;10445537;28;20036;-81
2021/11/10 13:06:26;;;;;;;6.03;2.78;;;;;;;;;;10453412;28;20433;-82
2021/11/10 13:11:35;;;;;;;2.88;2.33;;;;;;;;;;10433097;28;20456;-83
2021/11/10 13:16:38;;;;;;;3.25;2.40;;;;;;;;;;10426048;28;20072;-84
2021/11/10 13:21:54;;;;;;;4.28;2.50;;;;;;;;;;10441677;28;20034;-83
2021/11/10 13:26:55;;;;;;;5.28;2.80;;;;;;;;;;10459808;28;20041;-83
2021/11/10 13:32:13;;;;;;;3.63;2.35;;;;;;;;;;10457265;28;20021;-83
2021/11/10 13:37:19;;;;;;;4.90;2.50;;;;;;;;;;10435105;28;20379;-83
2021/11/10 13:42:25;;;;;;;5.15;3.47;;;;;;;;;;10430107;28;20132;-81
2021/11/10 13:47:27;;;;;;;5.45;2.90;;;;;;;;;;10451538;28;20022;-82
2021/11/10 13:52:27;;;;;;;4.18;2.80;;;;;;;;;;10450930;28;20037;-82
2021/11/10 13:57:30;;;;;;;7.97;2.85;;;;;;;;;;10437214;28;20030;-83
2021/11/10 14:02:37;;;;;;;5.13;2.88;;;;;;;;;;10430603;28;20448;-83
2021/11/10 14:07:40;;;;;;;3.47;2.53;;;;;;;;;;10432124;28;20024;-85
2021/11/10 14:12:43;;;;;;;3.97;2.25;;;;;;;;;;10454371;28;20120;-84
2021/11/10 14:17:46;;;;;;;6.05;2.53;;;;;;;;;;10453909;28;20437;-83
2021/11/10 14:23:05;;;;;;;4.00;2.30;;;;;;;;;;10458349;28;20025;-85
2021/11/10 14:28:05;;;;;;;3.58;2.10;;;;;;;;;;10428052;28;20072;-84
2021/11/10 14:33:06;;;;;;;8.88;2.67;;;;;;;;;;10424759;28;20044;-84
2021/11/10 14:38:12;;;;;;;4.55;2.33;;;;;;;;;;10410416;28;20395;-83
2021/11/10 14:43:17;;;;;;;4.22;2.40;;;;;;;;;;10411271;28;20683;-83
2021/11/10 14:48:30;;;;;;;6.45;2.80;;;;;;;;;;10433126;28;20512;-83
2021/11/10 14:53:30;;;;;;;8.07;2.67;;;;;;;;;;10435863;28;20425;-83
2021/11/10 14:58:31;;;;;;;11.93;2.63;;;;;;;;;;10427166;28;20041;-85
2021/11/10 15:03:31;;;;;;;5.47;2.35;;;;;;;;;;10424542;28;20076;-84
2021/11/10 15:08:31;;;;;;;3.65;2.47;;;;;;;;;;10471409;28;20073;-84
2021/11/10 15:13:38;;;;;;;4.73;2.20;;;;;;;;;;10443725;28;20033;-84
2021/11/10 15:18:39;;;;;;;2.28;2.05;;;;;;;;;;10431382;28;20450;-84
2021/11/10 15:23:41;;;;;;;3.67;1.95;;;;;;;;;;10467637;28;20387;-81
2021/11/10 15:28:48;;;;;;;2.97;1.75;;;;;;;;;;10465690;28;20045;-84
2021/11/10 15:33:48;;;;;;;4.72;2.35;;;;;;;;;;10447900;28;20048;-83
2021/11/10 15:38:51;;;;;;;4.78;2.20;;;;;;;;;;10437545;28;20048;-83
2021/11/10 15:43:51;;;;;;;3.38;2.28;;;;;;;;;;10440120;28;20120;-83
2021/11/10 15:48:52;;;;;;;6.20;2.90;;;;;;;;;;10448736;28;20119;-84
2021/11/10 15:53:52;;;;;;;3.33;2.10;;;;;;;;;;10454792;28;20458;-84
2021/11/10 15:58:53;;;;;;;5.07;2.53;;;;;;;;;;10450403;28;20394;-83
2021/11/10 16:03:53;;;;;;;6.20;2.47;;;;;;;;;;10422510;28;20029;-83
2021/11/10 16:08:54;;;;;;;4.28;2.10;;;;;;;;;;10473103;28;20108;-83
2021/11/10 16:13:54;;;;;;;2.78;1.90;;;;;;;;;;10447960;28;20107;-83
2021/11/10 16:18:55;;;;;;;4.60;2.20;;;;;;;;;;10479979;28;20032;-83
2021/11/10 16:23:55;;;;;;;10.03;2.07;;;;;;;;;;10455471;28;20504;-84
2021/11/10 16:28:59;;;;;;;3.13;2.17;;;;;;;;;;10417373;28;20502;-83
2021/11/10 16:33:59;;;;;;;7.10;2.22;;;;;;;;;;10443231;28;20094;-84
2021/11/10 16:39:00;;;;;;;3.57;2.13;;;;;;;;;;10455250;28;20118;-82
2021/11/10 16:44:00;;;;;;;5.38;2.47;;;;;;;;;;10435829;28;20458;-83
2021/11/10 16:49:00;;;;;;;4.13;2.00;;;;;;;;;;10432904;28;20136;-83
2021/11/10 16:54:01;;;;;;;3.90;2.00;;;;;;;;;;10477733;28;20567;-83
2021/11/10 16:59:02;;;;;;;3.33;2.10;;;;;;;;;;10447219;28;20589;-84
2021/11/10 17:04:03;;;;;;;3.95;2.05;;;;;;;;;;10464139;28;20029;-83
2021/11/10 17:09:04;;;;;;;2.72;2.00;;;;;;;;;;10478711;28;20033;-83
2021/11/10 17:14:06;;;;;;;3.47;1.95;;;;;;;;;;10459956;28;20128;-83
2021/11/10 17:19:07;;;;;;;3.45;2.13;;;;;;;;;;10429537;28;20045;-83
2021/11/10 17:24:07;;;;;;;2.33;2.03;;;;;;;;;;10443635;28;20033;-83
2021/11/10 17:29:08;;;;;;;2.25;2.03;;;;;;;;;;10459620;28;20862;-82
2021/11/10 17:34:08;;;;;;;2.58;2.17;;;;;;;;;;10459153;28;20048;-81
2021/11/10 17:39:08;;;;;;;2.08;1.88;;;;;;;;;;10422240;28;20025;-81
2021/11/10 17:44:10;;;;;;;4.97;2.53;;;;;;;;;;10447623;28;20037;-79
2021/11/10 17:49:10;;;;;;;2.97;2.42;;;;;;;;;;10415614;28;20458;-83
2021/11/10 17:54:11;;;;;;;5.30;2.70;;;;;;;;;;10447798;28;20037;-82
2021/11/10 17:59:11;;;;;;;7.65;2.35;;;;;;;;;;10448560;28;21305;-81
2021/11/10 18:04:12;;;;;;;4.47;2.83;;;;;;;;;;10445211;28;20344;-81
2021/11/10 18:09:12;;;;;;;3.75;2.50;;;;;;;;;;10442152;28;20473;-81
2021/11/10 18:14:13;;;;;;;7.30;3.20;;;;;;;;;;10451541;28;20025;-80
2021/11/10 18:19:13;;;;;;;10.18;3.30;;;;;;;;;;10452402;28;20443;-81
2021/11/10 18:24:14;;;;;;;5.03;2.85;;;;;;;;;;10448562;28;20021;-80
2021/11/10 18:29:15;;;;;;;6.13;2.95;;;;;;;;;;10445273;28;20471;-81
2021/11/10 18:34:16;;;;;;;8.40;3.70;;;;;;;;;;10454027;28;20078;-80
2021/11/10 18:39:16;;;;;;;19.08;3.78;;;;;;;;;;10447470;28;20057;-79
2021/11/10 18:44:17;;;;;;;17.75;3.67;;;;;;;;;;10428366;28;20104;-80
2021/11/10 18:49:17;;;;;;;8.40;3.47;;;;;;;;;;10447536;28;20061;-78
2021/11/10 18:54:18;;;;;;;10.57;3.73;;;;;;;;;;10452319;28;20450;-80
2021/11/10 18:59:21;;;;;;;13.63;4.70;;;;;;;;;;10441549;28;20446;-80
2021/11/10 19:04:24;;;;;;;9.07;4.05;;;;;;;;;;10451662;28;20789;-80
2021/11/10 19:09:41;;;;;;;11.38;4.22;;;;;;;;;;10434771;28;20051;-80
2021/11/10 19:25:07;;;;;;;10.52;3.70;;;;;;;;;;10440303;28;20037;-81
2021/11/10 19:30:08;;;;;;;6.75;3.88;;;;;;;;;;10447013;28;20045;-81
2021/11/10 19:35:10;;;;;;;34.97;6.05;;;;;;;;;;10411409;28;20434;-79
2021/11/10 19:40:11;;;;;;;23.48;4.72;;;;;;;;;;10439037;28;20082;-79
2021/11/10 19:45:13;;;;;;;19.02;4.72;;;;;;;;;;10438933;28;20064;-79
2021/11/10 19:50:21;;;;;;;10.15;4.07;;;;;;;;;;10456485;28;20374;-79
2021/11/10 19:55:24;;;;;;;13.07;4.63;;;;;;;;;;10464394;28;20098;-79
2021/11/10 20:00:30;;;;;;;13.68;4.55;;;;;;;;;;10455513;28;20028;-79
2021/11/10 20:05:31;;;;;;;12.50;4.47;;;;;;;;;;10443872;28;20032;-79
2021/11/10 20:10:31;;;;;;;7.43;4.78;;;;;;;;;;10438315;28;20489;-78
2021/11/10 20:15:32;;;;;;;12.25;4.45;;;;;;;;;;10438487;28;20025;-79
2021/11/10 20:20:33;;;;;;;10.13;4.32;;;;;;;;;;10462836;28;20079;-79
2021/11/10 20:25:34;;;;;;;11.95;5.20;;;;;;;;;;10454895;28;20025;-78
2021/11/10 20:30:36;;;;;;;8.50;4.50;;;;;;;;;;10442201;28;20045;-79
2021/11/10 20:35:38;;;;;;;11.32;4.40;;;;;;;;;;10445122;28;20029;-78
2021/11/10 20:40:39;;;;;;;8.05;4.65;;;;;;;;;;10474126;28;20423;-79
2021/11/10 20:45:39;;;;;;;9.32;4.80;;;;;;;;;;10464525;28;20117;-79
2021/11/10 20:50:40;;;;;;;13.38;5.40;;;;;;;;;;10463663;28;20385;-79
2021/11/10 20:55:41;;;;;;;11.45;4.57;;;;;;;;;;10462829;28;20029;-79
2021/11/10 21:00:44;;;;;;;9.75;4.78;;;;;;;;;;10463504;28;20029;-79
2021/11/10 21:05:46;;;;;;;16.58;5.03;;;;;;;;;;10464122;28;20518;-79
2021/11/10 21:10:48;;;;;;;10.25;5.13;;;;;;;;;;10473390;28;20029;-78
2021/11/10 21:15:48;;;;;;;12.15;4.68;;;;;;;;;;10441683;28;20107;-79
2021/11/10 21:20:49;;;;;;;11.20;5.18;;;;;;;;;;10447218;28;20553;-79
2021/11/10 21:25:49;;;;;;;7.22;4.78;;;;;;;;;;10461403;28;20079;-79
2021/11/10 21:30:51;;;;;;;9.20;4.50;;;;;;;;;;10450132;28;20052;-79
2021/11/10 21:35:54;;;;;;;8.23;5.00;;;;;;;;;;10460885;28;20065;-79
2021/11/10 21:40:55;;;;;;;8.65;4.70;;;;;;;;;;10462146;28;20029;-78
2021/11/10 21:45:55;;;;;;;7.60;4.60;;;;;;;;;;10446502;28;20032;-79
2021/11/10 21:50:57;;;;;;;9.32;5.38;;;;;;;;;;10460447;28;20032;-79
2021/11/10 21:55:57;;;;;;;10.82;5.90;;;;;;;;;;10436970;28;20071;-79
2021/11/10 22:00:58;;;;;;;10.55;5.40;;;;;;;;;;10445581;28;20441;-79
2021/11/10 22:05:59;;;;;;;10.82;5.18;;;;;;;;;;10466325;28;20047;-78
2021/11/10 22:11:00;;;;;;;9.10;4.90;;;;;;;;;;10468012;28;20041;-79
2021/11/10 22:16:03;;;;;;;10.63;5.72;;;;;;;;;;10456187;28;20032;-79
2021/11/10 22:21:03;;;;;;;13.52;5.70;;;;;;;;;;10469654;28;20473;-77
2021/11/10 22:26:04;;;;;;;9.07;5.78;;;;;;;;;;10468007;28;20069;-78
2021/11/10 22:31:05;;;;;;;10.97;5.93;;;;;;;;;;10457286;28;20036;-81
2021/11/10 22:36:06;;;;;;;12.15;5.35;;;;;;;;;;10451032;28;20481;-81
2021/11/10 22:41:07;;;;;;;11.18;6.15;;;;;;;;;;10456107;28;20352;-81
2021/11/10 22:46:08;;;;;;;9.50;6.20;;;;;;;;;;10444580;28;20040;-81
2021/11/10 22:51:08;;;;;;;10.10;5.50;;;;;;;;;;10448600;28;20033;-82
2021/11/10 22:56:09;;;;;;;14.10;6.40;;;;;;;;;;10454226;28;20080;-80
2021/11/10 23:01:09;;;;;;;12.52;5.90;;;;;;;;;;10430205;28;20118;-81
2021/11/10 23:06:10;;;;;;;13.52;6.22;;;;;;;;;;10429969;28;20041;-80
2021/11/10 23:11:11;;;;;;;13.45;6.15;;;;;;;;;;10427116;28;20029;-80
2021/11/10 23:16:11;;;;;;;8.95;5.72;;;;;;;;;;10449394;28;20033;-80
2021/11/10 23:21:12;;;;;;;12.00;6.18;;;;;;;;;;10440381;28;20051;-81
2021/11/10 23:26:12;;;;;;;7.83;5.13;;;;;;;;;;10441151;28;20024;-80
2021/11/10 23:31:13;;;;;;;11.95;6.00;;;;;;;;;;10447622;28;20441;-80
2021/11/10 23:36:13;;;;;;;12.75;5.55;;;;;;;;;;10455608;28;20112;-80
2021/11/10 23:41:14;;;;;;;16.30;6.05;;;;;;;;;;10451237;28;20124;-82
2021/11/10 23:46:15;;;;;;;9.15;5.70;;;;;;;;;;10432894;28;20048;-81
2021/11/10 23:51:15;;;;;;;9.85;5.95;;;;;;;;;;10449131;28;20037;-82
2021/11/10 23:56:16;;;;;;;13.73;5.82;;;;;;;;;;10433225;28;20068;-81
